Time,TemperatureF,DewpointF,PressureIn,WindDirection,WindDirectionDegrees,WindSpeedMPH,WindSpeedGustMPH,Humidity,HourlyPrecipIn,Conditions,Clouds,dailyrainin,SoftwareType,DateUTC
2013-03-16 00:00:00,65.5,50.8,29.73,SSE,158,11.5,11.5,59,0.00,CLR,,0.00,WeatherDisplay:10.37,2013-03-16 05:00:00,
2013-03-16 00:05:00,65.2,50.5,29.74,SSE,152,12.7,12.7,59,0.00,CLR,,0.00,WeatherDisplay:10.37,2013-03-16 05:05:00,
2013-03-16 00:10:00,65.2,50.5,29.73,SW,235,17.3,17.3,59,0.00,CLR,,0.00,WeatherDisplay:10.37,2013-03-16 05:10:00,
2013-03-16 00:16:00,65.1,50.4,29.73,SSW,212,18.4,18.4,59,0.00,CLR,,0.00,WeatherDisplay:10.37,2013-03-16 05:16:00,
2013-03-16 00:21:00,65.2,50.5,29.73,SSW,196,10.4,10.4,59,0.00,CLR,,0.00,WeatherDisplay:10.37,2013-03-16 05:21:00,
2013-03-16 00:26:00,65.1,50.4,29.73,WSW,250,12.7,12.7,59,0.00,CLR,,0.00,WeatherDisplay:10.37,2013-03-16 05:26:00,
2013-03-16 00:31:00,65.2,50.5,29.73,SSW,192,12.7,12.7,59,0.00,CLR,,0.00,WeatherDisplay:10.37,2013-03-16 05:31:00,
2013-03-16 00:36:00,65.1,50.4,29.72,WSW,240,11.5,11.5,59,0.00,CLR,,0.00,WeatherDisplay:10.37,2013-03-16 05:36:00,
2013-03-16 00:41:00,65.0,50.3,29.72,South,173,13.8,13.8,59,0.00,CLR,,0.00,WeatherDisplay:10.37,2013-03-16 05:41:00,
2013-03-16 00:46:00,65.0,50.3,29.72,SSE,163,16.1,16.1,59,0.00,CLR,,0.00,WeatherDisplay:10.37,2013-03-16 05:46:00,
2013-03-16 00:51:00,65.0,50.3,29.72,SSW,202,18.4,18.4,59,0.00,CLR,,0.00,WeatherDisplay:10.37,2013-03-16 05:51:00,
2013-03-16 00:56:00,65.1,50.4,29.71,SW,217,16.1,16.1,59,0.00,CLR,,0.00,WeatherDisplay:10.37,2013-03-16 05:56:00,
2013-03-16 01:01:00,65.0,49.9,29.71,SSW,204,14.0,14.0,58,0.00,CLR,,0.00,WeatherDisplay:10.37,2013-03-16 06:01:00,
2013-03-16 01:06:00,65.0,50.3,29.71,SSW,200,14.0,14.0,59,0.00,CLR,,0.00,WeatherDisplay:10.37,2013-03-16 06:06:00,
2013-03-16 01:11:00,64.9,49.8,29.71,SSE,166,17.3,17.3,58,0.00,CLR,,0.00,WeatherDisplay:10.37,2013-03-16 06:11:00,
2013-03-16 01:16:00,65.1,50.0,29.71,WSW,248,13.8,13.8,58,0.00,CLR,,0.00,WeatherDisplay:10.37,2013-03-16 06:16:00,
2013-03-16 01:21:00,65.0,49.9,29.71,SSW,195,13.8,13.8,58,0.00,CLR,,0.00,WeatherDisplay:10.37,2013-03-16 06:21:00,
2013-03-16 01:26:00,65.0,49.9,29.71,SSW,204,15.0,15.0,58,0.00,CLR,,0.00,WeatherDisplay:10.37,2013-03-16 06:26:00,
2013-03-16 01:32:00,64.7,49.6,29.71,South,175,12.7,12.7,58,0.00,CLR,,0.00,WeatherDisplay:10.37,2013-03-16 06:32:00,
2013-03-16 01:37:00,64.7,49.6,29.72,South,190,17.3,17.3,58,0.00,CLR,,0.00,WeatherDisplay:10.37,2013-03-16 06:37:00,
2013-03-16 01:42:00,64.7,49.6,29.71,SSW,209,12.0,12.0,58,0.00,CLR,,0.00,WeatherDisplay:10.37,2013-03-16 06:42:00,
2013-03-16 01:47:00,64.6,49.5,29.71,SSW,209,18.4,18.4,58,0.00,CLR,,0.00,WeatherDisplay:10.37,2013-03-16 06:47:00,
2013-03-16 01:52:00,64.5,49.8,29.71,SSW,207,12.7,12.7,59,0.00,CLR,,0.00,WeatherDisplay:10.37,2013-03-16 06:52:00,
2013-03-16 01:57:00,64.4,49.8,29.72,SW,221,12.7,12.7,59,0.00,CLR,,0.00,WeatherDisplay:10.37,2013-03-16 06:57:00,
2013-03-16 02:02:00,64.3,49.7,29.72,SSW,202,11.5,11.5,59,0.00,CLR,,0.00,WeatherDisplay:10.37,2013-03-16 07:02:00,
2013-03-16 02:07:00,64.1,49.5,29.72,SW,219,10.4,10.4,59,0.00,CLR,,0.00,WeatherDisplay:10.37,2013-03-16 07:07:00,
2013-03-16 02:12:00,63.9,49.3,29.72,SSW,207,11.5,11.5,59,0.00,CLR,,0.00,WeatherDisplay:10.37,2013-03-16 07:12:00,
2013-03-16 02:17:00,63.9,49.7,29.71,WSW,240,13.8,13.8,60,0.00,CLR,,0.00,WeatherDisplay:10.37,2013-03-16 07:17:00,
2013-03-16 02:22:00,63.8,49.2,29.71,WSW,240,12.7,12.7,59,0.00,CLR,,0.00,WeatherDisplay:10.37,2013-03-16 07:22:00,
2013-03-16 02:27:00,63.8,49.2,29.71,WSW,248,12.7,12.7,59,0.00,CLR,,0.00,WeatherDisplay:10.37,2013-03-16 07:27:00,
2013-03-16 02:32:00,63.7,49.5,29.71,SSW,209,11.5,11.5,60,0.00,CLR,,0.00,WeatherDisplay:10.37,2013-03-16 07:32:00,
2013-03-16 02:37:00,63.5,49.4,29.71,SSW,202,12.7,12.7,60,0.00,CLR,,0.00,WeatherDisplay:10.37,2013-03-16 07:37:00,
2013-03-16 02:42:00,63.4,49.3,29.71,SW,232,14.0,14.0,60,0.00,CLR,,0.00,WeatherDisplay:10.37,2013-03-16 07:42:00,
2013-03-16 02:47:00,63.4,49.3,29.71,WSW,250,15.0,15.0,60,0.00,CLR,,0.00,WeatherDisplay:10.37,2013-03-16 07:47:00,
2013-03-16 02:52:00,63.4,49.3,29.71,SSW,200,12.0,12.0,60,0.00,CLR,,0.00,WeatherDisplay:10.37,2013-03-16 07:52:00,
2013-03-16 02:57:00,63.3,49.2,29.71,WSW,256,19.6,19.6,60,0.00,CLR,,0.00,WeatherDisplay:10.37,2013-03-16 07:57:00,
2013-03-16 03:02:00,63.4,49.3,29.71,SSW,211,17.3,17.3,60,0.00,CLR,,0.00,WeatherDisplay:10.37,2013-03-16 08:02:00,
2013-03-16 03:07:00,63.3,49.2,29.71,South,186,12.7,12.7,60,0.00,CLR,,0.00,WeatherDisplay:10.37,2013-03-16 08:07:00,
2013-03-16 03:12:00,63.1,49.0,29.71,SSW,213,11.5,11.5,60,0.00,CLR,,0.00,WeatherDisplay:10.37,2013-03-16 08:12:00,
2013-03-16 03:17:00,63.0,48.9,29.71,SSW,212,15.0,15.0,60,0.00,CLR,,0.00,WeatherDisplay:10.37,2013-03-16 08:17:00,
2013-03-16 03:22:00,62.8,48.7,29.70,SSW,194,20.0,20.0,60,0.00,CLR,,0.00,WeatherDisplay:10.37,2013-03-16 08:22:00,
2013-03-16 03:27:00,62.6,49.0,29.70,SSW,206,13.8,13.8,61,0.00,CLR,,0.00,WeatherDisplay:10.37,2013-03-16 08:27:00,
2013-03-16 03:32:00,62.6,49.0,29.70,SW,231,15.0,15.0,61,0.00,CLR,,0.00,WeatherDisplay:10.37,2013-03-16 08:32:00,
2013-03-16 03:37:00,62.5,48.9,29.70,SW,225,15.0,15.0,61,0.00,CLR,,0.00,WeatherDisplay:10.37,2013-03-16 08:37:00,
2013-03-16 03:42:00,62.3,48.7,29.70,SSW,206,14.0,14.0,61,0.00,CLR,,0.00,WeatherDisplay:10.37,2013-03-16 08:42:00,
2013-03-16 03:47:00,62.4,48.8,29.70,SW,227,16.1,16.1,61,0.00,CLR,,0.00,WeatherDisplay:10.37,2013-03-16 08:47:00,
2013-03-16 03:52:00,62.2,48.6,29.70,SSW,194,15.0,15.0,61,0.00,CLR,,0.00,WeatherDisplay:10.37,2013-03-16 08:52:00,
2013-03-16 03:57:00,62.0,48.8,29.70,South,170,18.4,18.4,62,0.00,CLR,,0.00,WeatherDisplay:10.37,2013-03-16 08:57:00,
2013-03-16 04:02:00,61.9,48.7,29.70,SW,217,15.0,15.0,62,0.00,CLR,,0.00,WeatherDisplay:10.37,2013-03-16 09:02:00,
2013-03-16 04:07:00,61.7,48.5,29.70,SSW,200,11.5,11.5,62,0.00,CLR,,0.00,WeatherDisplay:10.37,2013-03-16 09:07:00,
2013-03-16 04:12:00,61.4,48.3,29.70,SW,235,13.8,13.8,62,0.00,CLR,,0.00,WeatherDisplay:10.37,2013-03-16 09:12:00,
2013-03-16 04:17:00,61.2,48.5,29.70,SW,222,14.0,14.0,63,0.00,CLR,,0.00,WeatherDisplay:10.37,2013-03-16 09:17:00,
2013-03-16 04:22:00,61.1,48.4,29.70,SSW,209,16.1,16.1,63,0.00,CLR,,0.00,WeatherDisplay:10.37,2013-03-16 09:22:00,
2013-03-16 04:28:00,61.0,48.3,29.70,SSW,203,9.2,9.2,63,0.00,CLR,,0.00,WeatherDisplay:10.37,2013-03-16 09:28:00,
2013-03-16 04:33:00,60.7,48.4,29.70,WSW,252,8.1,8.1,64,0.00,CLR,,0.00,WeatherDisplay:10.37,2013-03-16 09:33:00,
2013-03-16 04:38:00,60.6,48.4,29.70,SW,231,8.1,8.1,64,0.00,CLR,,0.00,WeatherDisplay:10.37,2013-03-16 09:38:00,
2013-03-16 04:43:00,60.4,48.2,29.70,SSW,193,11.5,11.5,64,0.00,CLR,,0.00,WeatherDisplay:10.37,2013-03-16 09:43:00,
2013-03-16 04:48:00,60.3,48.5,29.70,WSW,239,12.0,12.0,65,0.00,CLR,,0.00,WeatherDisplay:10.37,2013-03-16 09:48:00,
2013-03-16 04:53:00,60.1,48.3,29.70,SSW,196,12.7,12.7,65,0.00,CLR,,0.00,WeatherDisplay:10.37,2013-03-16 09:53:00,
2013-03-16 04:58:00,60.0,48.2,29.70,SW,217,12.0,12.0,65,0.00,CLR,,0.00,WeatherDisplay:10.37,2013-03-16 09:58:00,
2013-03-16 05:03:00,60.1,48.3,29.70,South,175,11.5,11.5,65,0.00,CLR,,0.00,WeatherDisplay:10.37,2013-03-16 10:03:00,
2013-03-16 05:08:00,60.0,48.2,29.70,SW,222,12.7,12.7,65,0.00,CLR,,0.00,WeatherDisplay:10.37,2013-03-16 10:08:00,
2013-03-16 05:13:00,59.9,48.1,29.70,South,188,15.0,15.0,65,0.00,CLR,,0.00,WeatherDisplay:10.37,2013-03-16 10:13:00,
2013-03-16 05:18:00,59.8,48.4,29.70,South,179,11.5,11.5,66,0.00,CLR,,0.00,WeatherDisplay:10.37,2013-03-16 10:18:00,
2013-03-16 05:23:00,59.7,48.3,29.71,SSW,207,15.0,15.0,66,0.00,CLR,,0.00,WeatherDisplay:10.37,2013-03-16 10:23:00,
2013-03-16 05:28:00,59.8,48.4,29.70,SW,226,8.1,8.1,66,0.00,CLR,,0.00,WeatherDisplay:10.37,2013-03-16 10:28:00,
2013-03-16 05:33:00,59.6,48.2,29.71,WSW,242,10.0,10.0,66,0.00,CLR,,0.00,WeatherDisplay:10.37,2013-03-16 10:33:00,
2013-03-16 05:38:00,59.5,48.1,29.71,SSW,209,9.2,9.2,66,0.00,CLR,,0.00,WeatherDisplay:10.37,2013-03-16 10:38:00,
2013-03-16 05:43:00,59.4,48.0,29.71,WSW,242,14.0,14.0,66,0.00,CLR,,0.00,WeatherDisplay:10.37,2013-03-16 10:43:00,
2013-03-16 05:48:00,59.2,48.2,29.71,SSW,202,9.2,9.2,67,0.00,CLR,,0.00,WeatherDisplay:10.37,2013-03-16 10:48:00,
2013-03-16 05:53:00,59.3,47.9,29.71,SW,231,13.8,13.8,66,0.00,CLR,,0.00,WeatherDisplay:10.37,2013-03-16 10:53:00,
2013-03-16 05:58:00,59.2,48.2,29.71,SSW,202,11.5,11.5,67,0.00,CLR,,0.00,WeatherDisplay:10.37,2013-03-16 10:58:00,
2013-03-16 06:03:00,59.2,48.2,29.72,SW,226,9.0,9.0,67,0.00,CLR,,0.00,WeatherDisplay:10.37,2013-03-16 11:03:00,
2013-03-16 06:08:00,59.1,48.1,29.71,South,188,12.7,12.7,67,0.00,CLR,,0.00,WeatherDisplay:10.37,2013-03-16 11:08:00,
2013-03-16 06:13:00,59.1,48.1,29.72,South,188,12.7,12.7,67,0.00,CLR,,0.00,WeatherDisplay:10.37,2013-03-16 11:13:00,
2013-03-16 06:18:00,59.0,48.1,29.72,SW,227,11.5,11.5,67,0.00,CLR,,0.00,WeatherDisplay:10.37,2013-03-16 11:18:00,
2013-03-16 06:23:00,58.9,48.0,29.72,South,180,11.5,11.5,67,0.00,CLR,,0.00,WeatherDisplay:10.37,2013-03-16 11:23:00,
2013-03-16 06:28:00,58.7,47.8,29.72,SW,214,12.7,12.7,67,0.00,CLR,,0.00,WeatherDisplay:10.37,2013-03-16 11:28:00,
2013-03-16 06:33:00,58.6,48.1,29.72,SSW,200,10.4,10.4,68,0.00,CLR,,0.00,WeatherDisplay:10.37,2013-03-16 11:33:00,
2013-03-16 06:38:00,58.6,48.1,29.72,South,184,11.5,11.5,68,0.00,CLR,,0.00,WeatherDisplay:10.37,2013-03-16 11:38:00,
2013-03-16 06:43:00,58.6,48.1,29.72,SW,215,12.7,12.7,68,0.00,CLR,,0.00,WeatherDisplay:10.37,2013-03-16 11:43:00,
2013-03-16 06:48:00,58.5,48.0,29.72,SSE,165,13.8,13.8,68,0.00,CLR,,0.00,WeatherDisplay:10.37,2013-03-16 11:48:00,
2013-03-16 06:53:00,58.5,48.0,29.72,SW,232,15.0,15.0,68,0.00,CLR,,0.00,WeatherDisplay:10.37,2013-03-16 11:53:00,
2013-03-16 06:58:00,58.4,47.9,29.73,SW,231,12.0,12.0,68,0.00,CLR,,0.00,WeatherDisplay:10.37,2013-03-16 11:58:00,
2013-03-16 07:03:00,58.4,47.9,29.73,SW,227,15.0,15.0,68,0.00,CLR,,0.00,WeatherDisplay:10.37,2013-03-16 12:03:00,
2013-03-16 07:08:00,58.3,47.8,29.73,SW,232,10.4,10.4,68,0.00,CLR,,0.00,WeatherDisplay:10.37,2013-03-16 12:08:00,
2013-03-16 07:13:00,58.2,47.7,29.73,SW,229,10.4,10.4,68,0.00,CLR,,0.00,WeatherDisplay:10.37,2013-03-16 12:13:00,
2013-03-16 07:18:00,58.1,48.0,29.73,SW,219,12.7,12.7,69,0.00,CLR,,0.00,WeatherDisplay:10.37,2013-03-16 12:18:00,
2013-03-16 07:23:00,58.0,47.9,29.73,South,189,13.8,13.8,69,0.00,CLR,,0.00,WeatherDisplay:10.37,2013-03-16 12:23:00,
2013-03-16 07:28:00,57.9,47.8,29.73,SW,215,11.5,11.5,69,0.00,CLR,,0.00,WeatherDisplay:10.37,2013-03-16 12:28:00,
2013-03-16 07:34:00,57.8,47.7,29.74,WSW,248,11.0,11.0,69,0.00,CLR,,0.00,WeatherDisplay:10.37,2013-03-16 12:34:00,
2013-03-16 07:39:00,57.8,48.1,29.74,SW,215,15.0,15.0,70,0.00,CLR,,0.00,WeatherDisplay:10.37,2013-03-16 12:39:00,
2013-03-16 07:44:00,57.8,48.1,29.74,SW,221,10.0,10.0,70,0.00,CLR,,0.00,WeatherDisplay:10.37,2013-03-16 12:44:00,
2013-03-16 07:49:00,57.8,48.1,29.74,WSW,240,11.5,11.5,70,0.00,CLR,,0.00,WeatherDisplay:10.37,2013-03-16 12:49:00,
2013-03-16 07:54:00,58.0,48.3,29.74,SSW,211,9.2,9.2,70,0.00,CLR,,0.00,WeatherDisplay:10.37,2013-03-16 12:54:00,
2013-03-16 07:59:00,58.2,48.5,29.74,WSW,241,16.1,16.1,70,0.00,CLR,,0.00,WeatherDisplay:10.37,2013-03-16 12:59:00,
2013-03-16 08:04:00,58.4,48.7,29.75,SW,217,16.1,16.1,70,0.00,CLR,,0.00,WeatherDisplay:10.37,2013-03-16 13:04:00,
2013-03-16 08:09:00,58.6,48.8,29.75,SW,227,12.7,12.7,70,0.00,CLR,,0.00,WeatherDisplay:10.37,2013-03-16 13:09:00,
2013-03-16 08:14:00,58.7,48.9,29.75,SSW,210,16.1,16.1,70,0.00,CLR,,0.00,WeatherDisplay:10.37,2013-03-16 13:14:00,
2013-03-16 08:19:00,58.8,49.0,29.75,SSW,206,15.0,15.0,70,0.00,CLR,,0.00,WeatherDisplay:10.37,2013-03-16 13:19:00,
2013-03-16 08:24:00,59.0,49.2,29.75,SW,215,13.8,13.8,70,0.00,CLR,,0.00,WeatherDisplay:10.37,2013-03-16 13:24:00,
2013-03-16 08:29:00,59.1,49.3,29.75,SW,221,17.3,17.3,70,0.00,CLR,,0.00,WeatherDisplay:10.37,2013-03-16 13:29:00,
2013-03-16 08:34:00,59.3,49.5,29.75,WSW,238,13.8,13.8,70,0.00,CLR,,0.00,WeatherDisplay:10.37,2013-03-16 13:34:00,
2013-03-16 08:39:00,59.5,49.7,29.75,SW,215,15.0,15.0,70,0.00,CLR,,0.00,WeatherDisplay:10.37,2013-03-16 13:39:00,
2013-03-16 08:44:00,59.7,49.9,29.75,South,186,12.7,12.7,70,0.00,CLR,,0.00,WeatherDisplay:10.37,2013-03-16 13:44:00,
2013-03-16 08:49:00,59.9,50.1,29.75,SSW,197,14.0,14.0,70,0.00,CLR,,0.00,WeatherDisplay:10.37,2013-03-16 13:49:00,
2013-03-16 08:54:00,60.0,50.2,29.75,SW,229,13.8,13.8,70,0.00,CLR,,0.00,WeatherDisplay:10.37,2013-03-16 13:54:00,
2013-03-16 08:59:00,60.2,50.4,29.75,SW,218,10.4,10.4,70,0.00,CLR,,0.00,WeatherDisplay:10.37,2013-03-16 13:59:00,
2013-03-16 09:04:00,60.4,50.6,29.76,SSW,205,18.4,18.4,70,0.00,CLR,,0.00,WeatherDisplay:10.37,2013-03-16 14:04:00,
2013-03-16 09:09:00,60.5,50.7,29.76,South,190,12.7,12.7,70,0.00,CLR,,0.00,WeatherDisplay:10.37,2013-03-16 14:09:00,
2013-03-16 09:14:00,60.9,51.0,29.76,SW,233,17.3,17.3,70,0.00,CLR,,0.00,WeatherDisplay:10.37,2013-03-16 14:14:00,
2013-03-16 09:19:00,61.1,50.8,29.76,SSW,209,18.4,18.4,69,0.00,CLR,,0.00,WeatherDisplay:10.37,2013-03-16 14:19:00,
2013-03-16 09:24:00,61.0,50.8,29.76,SW,224,15.0,15.0,69,0.00,CLR,,0.00,WeatherDisplay:10.37,2013-03-16 14:24:00,
2013-03-16 09:29:00,61.0,51.1,29.76,SE,146,15.0,15.0,70,0.00,CLR,,0.00,WeatherDisplay:10.37,2013-03-16 14:29:00,
2013-03-16 09:34:00,61.3,51.4,29.77,WSW,250,17.3,17.3,70,0.00,CLR,,0.00,WeatherDisplay:10.37,2013-03-16 14:34:00,
2013-03-16 09:39:00,61.7,51.4,29.76,SSW,208,21.9,21.9,69,0.00,CLR,,0.00,WeatherDisplay:10.37,2013-03-16 14:39:00,
2013-03-16 09:44:00,62.0,51.3,29.76,SW,234,17.0,17.0,68,0.00,CLR,,0.00,WeatherDisplay:10.37,2013-03-16 14:44:00,
2013-03-16 09:49:00,62.2,51.5,29.76,WSW,257,23.0,23.0,68,0.00,CLR,,0.00,WeatherDisplay:10.37,2013-03-16 14:49:00,
2013-03-16 09:54:00,62.3,52.0,29.77,SSW,206,11.5,11.5,69,0.00,CLR,,0.00,WeatherDisplay:10.37,2013-03-16 14:54:00,
2013-03-16 09:59:00,62.4,52.1,29.77,SW,229,15.0,15.0,69,0.00,CLR,,0.00,WeatherDisplay:10.37,2013-03-16 14:59:00,
2013-03-16 10:04:00,62.5,52.2,29.77,SSW,199,15.0,15.0,69,0.00,CLR,,0.00,WeatherDisplay:10.37,2013-03-16 15:04:00,
2013-03-16 10:09:00,62.6,51.9,29.77,South,186,18.0,18.0,68,0.00,CLR,,0.00,WeatherDisplay:10.37,2013-03-16 15:09:00,
2013-03-16 10:14:00,62.8,52.5,29.77,SW,236,19.0,19.0,69,0.00,CLR,,0.00,WeatherDisplay:10.37,2013-03-16 15:14:00,
2013-03-16 10:19:00,63.1,52.8,29.77,SW,215,15.0,15.0,69,0.00,CLR,,0.00,WeatherDisplay:10.37,2013-03-16 15:19:00,
2013-03-16 10:24:00,63.1,52.4,29.78,SSW,206,15.0,15.0,68,0.00,CLR,,0.00,WeatherDisplay:10.37,2013-03-16 15:24:00,
2013-03-16 10:29:00,63.3,52.6,29.78,SW,216,15.0,15.0,68,0.00,CLR,,0.00,WeatherDisplay:10.37,2013-03-16 15:29:00,
2013-03-16 10:34:00,63.5,52.3,29.78,SSW,205,18.4,18.4,67,0.00,CLR,,0.00,WeatherDisplay:10.37,2013-03-16 15:34:00,
2013-03-16 10:39:00,63.5,53.1,29.78,SSW,202,15.0,15.0,69,0.00,CLR,,0.00,WeatherDisplay:10.37,2013-03-16 15:39:00,
2013-03-16 10:44:00,63.9,53.1,29.78,SSW,213,11.5,11.5,68,0.00,CLR,,0.00,WeatherDisplay:10.37,2013-03-16 15:44:00,
2013-03-16 10:49:00,64.5,53.7,29.78,WSW,237,17.3,17.3,68,0.00,CLR,,0.00,WeatherDisplay:10.37,2013-03-16 15:49:00,
2013-03-16 10:54:00,64.6,53.0,29.78,SW,228,16.1,16.1,66,0.00,CLR,,0.00,WeatherDisplay:10.37,2013-03-16 15:54:00,
2013-03-16 10:59:00,64.5,53.3,29.78,SSW,207,8.1,8.1,67,0.00,CLR,,0.00,WeatherDisplay:10.37,2013-03-16 15:59:00,
2013-03-16 11:04:00,64.7,53.1,29.78,SW,229,14.0,14.0,66,0.00,CLR,,0.00,WeatherDisplay:10.37,2013-03-16 16:04:00,
2013-03-16 11:09:00,64.7,53.1,29.78,West,260,13.8,13.8,66,0.00,CLR,,0.00,WeatherDisplay:10.37,2013-03-16 16:09:00,
2013-03-16 11:14:00,64.8,53.6,29.78,SW,219,11.5,11.5,67,0.00,CLR,,0.00,WeatherDisplay:10.37,2013-03-16 16:14:00,
2013-03-16 11:19:00,65.1,53.5,29.78,SW,221,13.8,13.8,66,0.00,CLR,,0.00,WeatherDisplay:10.37,2013-03-16 16:19:00,
2013-03-16 11:24:00,65.7,54.0,29.79,SW,223,14.0,14.0,66,0.00,CLR,,0.00,WeatherDisplay:10.37,2013-03-16 16:24:00,
2013-03-16 11:29:00,65.9,53.8,29.79,SW,225,11.5,11.5,65,0.00,CLR,,0.00,WeatherDisplay:10.37,2013-03-16 16:29:00,
2013-03-16 11:34:00,66.5,54.4,29.79,West,261,9.2,9.2,65,0.00,CLR,,0.00,WeatherDisplay:10.37,2013-03-16 16:34:00,
2013-03-16 11:39:00,66.9,53.9,29.79,SW,233,15.0,15.0,63,0.00,CLR,,0.00,WeatherDisplay:10.37,2013-03-16 16:39:00,
2013-03-16 11:44:00,66.6,54.0,29.80,West,260,11.5,11.5,64,0.00,CLR,,0.00,WeatherDisplay:10.37,2013-03-16 16:44:00,
2013-03-16 11:49:00,66.7,53.7,29.80,West,264,10.4,10.4,63,0.00,CLR,,0.00,WeatherDisplay:10.37,2013-03-16 16:49:00,
2013-03-16 11:54:00,66.6,54.0,29.80,SW,227,11.5,11.5,64,0.00,CLR,,0.00,WeatherDisplay:10.37,2013-03-16 16:54:00,
2013-03-16 11:59:00,66.9,53.9,29.80,WSW,240,10.4,10.4,63,0.00,CLR,,0.00,WeatherDisplay:10.37,2013-03-16 16:59:00,
2013-03-16 12:04:00,67.2,54.2,29.80,WSW,250,11.5,11.5,63,0.00,CLR,,0.00,WeatherDisplay:10.37,2013-03-16 17:04:00,
2013-03-16 12:10:00,67.6,53.7,29.81,West,263,12.7,12.7,61,0.00,CLR,,0.00,WeatherDisplay:10.37,2013-03-16 17:10:00,
2013-03-16 12:15:00,67.6,53.7,29.81,SW,234,10.4,10.4,61,0.00,CLR,,0.00,WeatherDisplay:10.37,2013-03-16 17:15:00,
2013-03-16 12:20:00,68.1,54.1,29.81,West,262,6.9,6.9,61,0.00,CLR,,0.00,WeatherDisplay:10.37,2013-03-16 17:20:00,
2013-03-16 12:25:00,68.8,54.8,29.81,WSW,257,9.2,9.2,61,0.00,CLR,,0.00,WeatherDisplay:10.37,2013-03-16 17:25:00,
2013-03-16 12:30:00,68.9,52.6,29.81,NW,309,5.8,5.8,56,0.00,CLR,,0.00,WeatherDisplay:10.37,2013-03-16 17:30:00,
2013-03-16 12:35:00,69.0,53.1,29.82,West,268,15.0,15.0,57,0.00,CLR,,0.00,WeatherDisplay:10.37,2013-03-16 17:35:00,
2013-03-16 12:40:00,68.9,53.5,29.81,WSW,250,9.2,9.2,58,0.00,CLR,,0.00,WeatherDisplay:10.37,2013-03-16 17:40:00,
2013-03-16 12:45:00,69.0,53.6,29.81,WSW,246,10.4,10.4,58,0.00,CLR,,0.00,WeatherDisplay:10.37,2013-03-16 17:45:00,
2013-03-16 12:50:00,69.2,53.8,29.80,NW,321,9.2,9.2,58,0.00,CLR,,0.00,WeatherDisplay:10.37,2013-03-16 17:50:00,
2013-03-16 12:55:00,69.7,55.2,29.80,WNW,282,4.6,4.6,60,0.00,CLR,,0.00,WeatherDisplay:10.37,2013-03-16 17:55:00,
2013-03-16 13:00:00,70.1,53.7,29.82,West,276,9.2,9.2,56,0.00,CLR,,0.00,WeatherDisplay:10.37,2013-03-16 18:00:00,
2013-03-16 13:05:00,70.1,52.7,29.81,NW,321,5.8,5.8,54,0.00,CLR,,0.00,WeatherDisplay:10.37,2013-03-16 18:05:00,
2013-03-16 13:10:00,69.9,53.0,29.80,NW,315,11.5,11.5,55,0.00,CLR,,0.00,WeatherDisplay:10.37,2013-03-16 18:10:00,
2013-03-16 13:15:00,70.1,53.2,29.80,West,260,7.0,7.0,55,0.00,CLR,,0.00,WeatherDisplay:10.37,2013-03-16 18:15:00,
2013-03-16 13:20:00,69.9,53.0,29.81,North,5,3.5,3.5,55,0.00,CLR,,0.00,WeatherDisplay:10.37,2013-03-16 18:20:00,
2013-03-16 13:25:00,68.1,51.3,29.81,North,350,6.0,6.0,55,0.00,CLR,,0.00,WeatherDisplay:10.37,2013-03-16 18:25:00,
2013-03-16 13:30:00,66.8,50.6,29.81,North,5,5.8,5.8,56,0.00,CLR,,0.00,WeatherDisplay:10.37,2013-03-16 18:30:00,
2013-03-16 13:35:00,66.3,50.6,29.81,NW,317,5.8,5.8,57,0.00,CLR,,0.00,WeatherDisplay:10.37,2013-03-16 18:35:00,
2013-03-16 13:40:00,66.0,50.3,29.81,NNW,336,5.0,5.0,57,0.00,CLR,,0.00,WeatherDisplay:10.37,2013-03-16 18:40:00,
2013-03-16 13:45:00,65.0,48.9,29.81,NNE,13,8.1,8.1,56,0.00,CLR,,0.00,WeatherDisplay:10.37,2013-03-16 18:45:00,
2013-03-16 13:50:00,63.9,48.8,29.82,North,360,4.6,4.6,58,0.00,CLR,,0.00,WeatherDisplay:10.37,2013-03-16 18:50:00,
2013-03-16 13:55:00,63.8,49.2,29.82,NNE,21,8.1,8.1,59,0.00,CLR,,0.00,WeatherDisplay:10.37,2013-03-16 18:55:00,
2013-03-16 14:00:00,63.4,49.3,29.82,NNE,19,4.6,4.6,60,0.00,CLR,,0.00,WeatherDisplay:10.37,2013-03-16 19:00:00,
2013-03-16 14:05:00,63.0,49.3,29.82,NNE,20,3.0,3.0,61,0.00,CLR,,0.00,WeatherDisplay:10.37,2013-03-16 19:05:00,
2013-03-16 14:10:00,62.7,49.1,29.82,NNE,14,3.5,3.5,61,0.00,CLR,,0.00,WeatherDisplay:10.37,2013-03-16 19:10:00,
2013-03-16 14:15:00,62.4,49.2,29.82,NNW,331,11.5,11.5,62,0.00,CLR,,0.00,WeatherDisplay:10.37,2013-03-16 19:15:00,
2013-03-16 14:20:00,62.4,48.8,29.82,NNE,24,8.1,8.1,61,0.00,CLR,,0.00,WeatherDisplay:10.37,2013-03-16 19:20:00,
2013-03-16 14:25:00,61.8,48.6,29.81,NNE,21,8.1,8.1,62,0.00,CLR,,0.00,WeatherDisplay:10.37,2013-03-16 19:25:00,
2013-03-16 14:30:00,60.8,48.1,29.82,North,5,4.6,4.6,63,0.00,CLR,,0.00,WeatherDisplay:10.37,2013-03-16 19:30:00,
2013-03-16 14:35:00,60.4,48.6,29.82,NNE,19,5.0,5.0,65,0.00,CLR,,0.00,WeatherDisplay:10.37,2013-03-16 19:35:00,
2013-03-16 14:40:00,60.5,48.7,29.82,North,5,5.8,5.8,65,0.00,CLR,,0.00,WeatherDisplay:10.37,2013-03-16 19:40:00,
2013-03-16 14:45:00,60.6,48.4,29.82,North,355,6.9,6.9,64,0.00,CLR,,0.00,WeatherDisplay:10.37,2013-03-16 19:45:00,
2013-03-16 14:50:00,60.3,48.1,29.82,North,5,5.0,5.0,64,0.00,CLR,,0.00,WeatherDisplay:10.37,2013-03-16 19:50:00,
2013-03-16 14:55:00,59.8,47.6,29.83,North,355,6.9,6.9,64,0.00,CLR,,0.00,WeatherDisplay:10.37,2013-03-16 19:55:00,
2013-03-16 15:00:00,59.7,47.1,29.83,North,360,5.8,5.8,63,0.00,CLR,,0.00,WeatherDisplay:10.37,2013-03-16 20:00:00,
2013-03-16 15:05:00,58.9,46.7,29.84,WNW,282,6.9,6.9,64,0.00,CLR,,0.00,WeatherDisplay:10.37,2013-03-16 20:05:00,
2013-03-16 15:10:00,58.5,46.8,29.84,North,360,4.6,4.6,65,0.00,CLR,,0.00,WeatherDisplay:10.37,2013-03-16 20:10:00,
2013-03-16 15:15:00,58.1,46.0,29.84,North,360,3.5,3.5,64,0.00,CLR,,0.00,WeatherDisplay:10.37,2013-03-16 20:15:00,
2013-03-16 15:20:00,57.7,46.0,29.84,NNW,329,6.0,6.0,65,0.00,CLR,,0.00,WeatherDisplay:10.37,2013-03-16 20:20:00,
2013-03-16 15:25:00,57.6,45.9,29.85,NNW,345,10.4,10.4,65,0.00,CLR,,0.00,WeatherDisplay:10.37,2013-03-16 20:25:00,
2013-03-16 15:30:00,57.8,46.1,29.85,NNE,13,5.8,5.8,65,0.00,CLR,,0.00,WeatherDisplay:10.37,2013-03-16 20:30:00,
2013-03-16 15:35:00,57.3,45.6,29.85,NNW,332,7.0,7.0,65,0.00,CLR,,0.00,WeatherDisplay:10.37,2013-03-16 20:35:00,
2013-03-16 15:40:00,57.5,46.2,29.85,NNW,343,5.8,5.8,66,0.00,CLR,,0.00,WeatherDisplay:10.37,2013-03-16 20:40:00,
2013-03-16 15:45:00,57.1,45.4,29.85,North,355,6.9,6.9,65,0.00,CLR,,0.00,WeatherDisplay:10.37,2013-03-16 20:45:00,
2013-03-16 15:50:00,56.6,45.4,29.86,North,355,6.0,6.0,66,0.00,CLR,,0.00,WeatherDisplay:10.37,2013-03-16 20:50:00,
2013-03-16 15:55:00,56.0,44.8,29.86,North,5,4.6,4.6,66,0.00,CLR,,0.00,WeatherDisplay:10.37,2013-03-16 20:55:00,
2013-03-16 16:00:00,55.2,44.4,29.86,North,360,10.4,10.4,67,0.00,CLR,,0.00,WeatherDisplay:10.37,2013-03-16 21:00:00,
2013-03-16 16:05:00,54.4,43.7,29.86,NW,325,8.1,8.1,67,0.00,CLR,,0.00,WeatherDisplay:10.37,2013-03-16 21:05:00,
2013-03-16 16:10:00,54.0,44.4,29.86,North,5,8.1,8.1,70,0.00,CLR,,0.00,WeatherDisplay:10.37,2013-03-16 21:10:00,
2013-03-16 16:15:00,53.9,44.0,29.86,North,355,8.1,8.1,69,0.00,CLR,,0.00,WeatherDisplay:10.37,2013-03-16 21:15:00,
2013-03-16 16:20:00,53.6,43.7,29.86,North,9,5.8,5.8,69,0.00,CLR,,0.00,WeatherDisplay:10.37,2013-03-16 21:20:00,
2013-03-16 16:25:00,53.2,43.3,29.86,North,355,4.6,4.6,69,0.00,CLR,,0.00,WeatherDisplay:10.37,2013-03-16 21:25:00,
2013-03-16 16:30:00,52.8,42.9,29.86,North,355,5.0,5.0,69,0.00,CLR,,0.00,WeatherDisplay:10.37,2013-03-16 21:30:00,
2013-03-16 16:36:00,52.3,42.8,29.85,North,5,6.9,6.9,70,0.00,CLR,,0.00,WeatherDisplay:10.37,2013-03-16 21:36:00,
2013-03-16 16:41:00,52.1,43.0,29.85,NNW,340,6.9,6.9,71,0.00,CLR,,0.00,WeatherDisplay:10.37,2013-03-16 21:41:00,
2013-03-16 16:46:00,52.1,43.0,29.85,NNE,16,5.8,5.8,71,0.00,CLR,,0.00,WeatherDisplay:10.37,2013-03-16 21:46:00,
2013-03-16 16:51:00,52.0,42.1,29.84,NNE,15,5.8,5.8,69,0.00,CLR,,0.00,WeatherDisplay:10.37,2013-03-16 21:51:00,
2013-03-16 16:56:00,51.8,41.9,29.84,NNE,14,3.5,3.5,69,0.00,CLR,,0.00,WeatherDisplay:10.37,2013-03-16 21:56:00,
2013-03-16 17:01:00,52.0,42.5,29.85,NNW,329,5.8,5.8,70,0.00,CLR,,0.00,WeatherDisplay:10.37,2013-03-16 22:01:00,
2013-03-16 17:06:00,52.0,42.5,29.84,North,5,4.0,4.0,70,0.00,CLR,,0.00,WeatherDisplay:10.37,2013-03-16 22:06:00,
2013-03-16 17:11:00,52.0,42.1,29.84,North,5,9.2,9.2,69,0.00,CLR,,0.00,WeatherDisplay:10.37,2013-03-16 22:11:00,
2013-03-16 17:16:00,51.9,42.0,29.84,NNE,27,5.8,5.8,69,0.00,CLR,,0.00,WeatherDisplay:10.37,2013-03-16 22:16:00,
2013-03-16 17:21:00,51.8,41.9,29.85,NNE,30,4.6,4.6,69,0.00,CLR,,0.00,WeatherDisplay:10.37,2013-03-16 22:21:00,
2013-03-16 17:26:00,51.6,41.8,29.85,North,11,6.9,6.9,69,0.00,CLR,,0.00,WeatherDisplay:10.37,2013-03-16 22:26:00,
2013-03-16 17:31:00,51.5,42.0,29.86,NNW,348,3.5,3.5,70,0.00,CLR,,0.00,WeatherDisplay:10.37,2013-03-16 22:31:00,
2013-03-16 17:36:00,51.6,42.1,29.86,NNE,15,3.5,3.5,70,0.00,CLR,,0.00,WeatherDisplay:10.37,2013-03-16 22:36:00,
2013-03-16 17:41:00,51.6,41.8,29.87,North,11,5.8,5.8,69,0.00,CLR,,0.00,WeatherDisplay:10.37,2013-03-16 22:41:00,
2013-03-16 17:46:00,51.4,41.6,29.87,North,10,8.1,8.1,69,0.00,CLR,,0.00,WeatherDisplay:10.37,2013-03-16 22:46:00,
2013-03-16 17:51:00,51.1,41.7,29.88,North,360,4.6,4.6,70,0.00,CLR,,0.00,WeatherDisplay:10.37,2013-03-16 22:51:00,
2013-03-16 17:56:00,51.0,41.6,29.88,North,355,4.0,5.3,70,0.00,CLR,,0.00,WeatherDisplay:10.37,2013-03-16 22:56:00,
2013-03-16 18:02:00,50.7,40.9,29.89,North,5,8.1,8.1,69,0.00,CLR,,0.00,WeatherDisplay:10.37,2013-03-16 23:02:00,
2013-03-16 18:07:00,50.5,41.1,29.89,North,350,3.5,3.5,70,0.00,CLR,,0.00,WeatherDisplay:10.37,2013-03-16 23:07:00,
2013-03-16 18:12:00,50.3,40.9,29.89,NNE,24,10.4,10.4,70,0.00,CLR,,0.00,WeatherDisplay:10.37,2013-03-16 23:12:00,
2013-03-16 18:17:00,50.1,41.1,29.89,North,5,4.0,4.0,71,0.00,CLR,,0.00,WeatherDisplay:10.37,2013-03-16 23:17:00,
2013-03-16 18:22:00,49.9,40.9,29.89,North,5,3.5,3.5,71,0.00,CLR,,0.00,WeatherDisplay:10.37,2013-03-16 23:22:00,
2013-03-16 18:27:00,49.8,40.8,29.89,North,11,5.8,5.8,71,0.00,CLR,,0.00,WeatherDisplay:10.37,2013-03-16 23:27:00,
2013-03-16 18:32:00,49.7,40.7,29.88,NNE,12,5.8,5.8,71,0.00,CLR,,0.00,WeatherDisplay:10.37,2013-03-16 23:32:00,
2013-03-16 18:37:00,49.7,40.7,29.88,North,350,5.8,5.8,71,0.00,CLR,,0.00,WeatherDisplay:10.37,2013-03-16 23:37:00,
2013-03-16 18:42:00,49.6,40.6,29.88,NNE,16,3.5,3.5,71,0.00,CLR,,0.00,WeatherDisplay:10.37,2013-03-16 23:42:00,
2013-03-16 18:47:00,49.6,40.6,29.88,NNE,24,3.5,3.5,71,0.00,CLR,,0.00,WeatherDisplay:10.37,2013-03-16 23:47:00,
2013-03-16 18:52:00,49.6,40.6,29.88,NNE,26,2.3,2.3,71,0.00,CLR,,0.00,WeatherDisplay:10.37,2013-03-16 23:52:00,
2013-03-16 18:57:00,49.6,40.6,29.88,NNE,13,3.5,3.5,71,0.00,CLR,,0.00,WeatherDisplay:10.37,2013-03-16 23:57:00,
2013-03-16 19:02:00,49.6,40.9,29.88,North,5,2.3,2.3,72,0.00,CLR,,0.00,WeatherDisplay:10.37,2013-03-17 00:02:00,
2013-03-16 19:07:00,49.5,40.8,29.87,NNE,27,3.5,3.5,72,0.00,CLR,,0.00,WeatherDisplay:10.37,2013-03-17 00:07:00,
2013-03-16 19:12:00,49.5,40.8,29.87,NNE,12,3.5,3.5,72,0.00,CLR,,0.00,WeatherDisplay:10.37,2013-03-17 00:12:00,
2013-03-16 19:17:00,49.5,40.8,29.86,NNE,13,5.8,5.8,72,0.00,CLR,,0.00,WeatherDisplay:10.37,2013-03-17 00:17:00,
2013-03-16 19:23:00,49.5,40.8,29.87,NNE,24,4.6,4.6,72,0.00,CLR,,0.00,WeatherDisplay:10.37,2013-03-17 00:23:00,
2013-03-16 19:28:00,49.5,40.8,29.87,NNE,13,2.3,2.3,72,0.00,CLR,,0.00,WeatherDisplay:10.37,2013-03-17 00:28:00,
2013-03-16 19:33:00,49.4,40.7,29.88,North,5,3.5,3.5,72,0.00,CLR,,0.00,WeatherDisplay:10.37,2013-03-17 00:33:00,
2013-03-16 19:38:00,49.3,40.7,29.88,NNE,13,1.1,1.1,72,0.00,CLR,,0.00,WeatherDisplay:10.37,2013-03-17 00:38:00,
2013-03-16 19:43:00,49.2,40.6,29.89,NE,34,8.1,8.1,72,0.00,CLR,,0.00,WeatherDisplay:10.37,2013-03-17 00:43:00,
2013-03-16 19:48:00,49.1,40.8,29.90,North,360,5.0,5.0,73,0.00,CLR,,0.00,WeatherDisplay:10.37,2013-03-17 00:48:00,
2013-03-16 19:53:00,49.0,40.7,29.90,NNE,14,4.0,4.0,73,0.00,CLR,,0.00,WeatherDisplay:10.37,2013-03-17 00:53:00,
2013-03-16 19:58:00,48.8,40.5,29.90,NNE,16,3.5,3.5,73,0.00,CLR,,0.00,WeatherDisplay:10.37,2013-03-17 00:58:00,
2013-03-16 20:03:00,48.7,40.8,29.90,NNE,13,3.5,3.5,74,0.00,CLR,,0.00,WeatherDisplay:10.37,2013-03-17 01:03:00,
2013-03-16 20:08:00,48.5,40.6,29.89,NNE,13,4.6,4.6,74,0.00,CLR,,0.00,WeatherDisplay:10.37,2013-03-17 01:08:00,
2013-03-16 20:13:00,48.4,40.5,29.90,North,5,3.5,3.5,74,0.00,CLR,,0.00,WeatherDisplay:10.37,2013-03-17 01:13:00,
2013-03-16 20:18:00,48.3,40.4,29.89,North,5,4.6,4.6,74,0.00,CLR,,0.00,WeatherDisplay:10.37,2013-03-17 01:18:00,
2013-03-16 20:23:00,48.1,40.5,29.89,NNE,18,4.6,4.6,75,0.00,CLR,,0.00,WeatherDisplay:10.37,2013-03-17 01:23:00,
2013-03-16 20:28:00,47.9,40.4,29.90,North,5,3.5,3.5,75,0.00,CLR,,0.00,WeatherDisplay:10.37,2013-03-17 01:28:00,
2013-03-16 20:33:00,47.7,40.2,29.91,North,355,3.5,3.5,75,0.00,CLR,,0.00,WeatherDisplay:10.37,2013-03-17 01:33:00,
2013-03-16 20:38:00,47.5,40.3,29.90,NNW,348,3.5,3.5,76,0.00,CLR,,0.00,WeatherDisplay:10.37,2013-03-17 01:38:00,
2013-03-16 20:43:00,47.3,40.1,29.90,NNE,24,3.5,3.5,76,0.00,CLR,,0.00,WeatherDisplay:10.37,2013-03-17 01:43:00,
2013-03-16 20:48:00,47.2,40.0,29.91,NNE,20,3.5,3.5,76,0.00,CLR,,0.00,WeatherDisplay:10.37,2013-03-17 01:48:00,
2013-03-16 20:53:00,47.1,39.9,29.91,North,11,3.5,3.5,76,0.00,CLR,,0.00,WeatherDisplay:10.37,2013-03-17 01:53:00,
2013-03-16 20:58:00,47.1,39.9,29.92,NNE,12,3.5,3.5,76,0.00,CLR,,0.00,WeatherDisplay:10.37,2013-03-17 01:58:00,
2013-03-16 21:03:00,47.1,39.9,29.92,NNE,18,8.1,8.1,76,0.00,CLR,,0.00,WeatherDisplay:10.37,2013-03-17 02:03:00,
2013-03-16 21:08:00,47.0,39.8,29.92,North,9,4.6,4.6,76,0.00,CLR,,0.00,WeatherDisplay:10.37,2013-03-17 02:08:00,
2013-03-16 21:13:00,47.0,39.8,29.92,North,5,3.5,3.5,76,0.00,CLR,,0.00,WeatherDisplay:10.37,2013-03-17 02:13:00,
2013-03-16 21:18:00,47.0,39.8,29.91,NNE,15,4.6,4.6,76,0.00,CLR,,0.00,WeatherDisplay:10.37,2013-03-17 02:18:00,
2013-03-16 21:23:00,46.9,39.7,29.92,NNE,33,3.5,3.5,76,0.00,CLR,,0.00,WeatherDisplay:10.37,2013-03-17 02:23:00,
2013-03-16 21:28:00,46.8,39.6,29.92,NNE,12,3.5,3.5,76,0.00,CLR,,0.00,WeatherDisplay:10.37,2013-03-17 02:28:00,
2013-03-16 21:33:00,46.7,39.5,29.92,NNE,19,3.5,3.5,76,0.00,CLR,,0.00,WeatherDisplay:10.37,2013-03-17 02:33:00,
2013-03-16 21:38:00,46.7,39.9,29.92,North,5,2.3,2.3,77,0.00,CLR,,0.00,WeatherDisplay:10.37,2013-03-17 02:38:00,
2013-03-16 21:43:00,46.7,39.9,29.92,North,5,3.5,3.5,77,0.00,CLR,,0.00,WeatherDisplay:10.37,2013-03-17 02:43:00,
2013-03-16 21:48:00,46.6,39.8,29.92,North,5,2.3,2.3,77,0.00,CLR,,0.00,WeatherDisplay:10.37,2013-03-17 02:48:00,
2013-03-16 21:53:00,46.6,40.1,29.93,NNE,19,1.1,1.1,78,0.00,CLR,,0.00,WeatherDisplay:10.37,2013-03-17 02:53:00,
2013-03-16 21:58:00,46.5,40.0,29.93,NNE,24,4.6,4.6,78,0.00,CLR,,0.00,WeatherDisplay:10.37,2013-03-17 02:58:00,
2013-03-16 22:03:00,46.4,39.9,29.92,NNE,33,2.3,2.3,78,0.00,CLR,,0.00,WeatherDisplay:10.37,2013-03-17 03:03:00,
2013-03-16 22:08:00,46.3,39.8,29.92,NNE,26,3.5,3.5,78,0.00,CLR,,0.00,WeatherDisplay:10.37,2013-03-17 03:08:00,
2013-03-16 22:13:00,46.2,39.7,29.92,NNE,27,3.5,3.5,78,0.00,CLR,,0.00,WeatherDisplay:10.37,2013-03-17 03:13:00,
2013-03-16 22:18:00,46.1,39.6,29.91,NNE,27,3.5,3.5,78,0.00,CLR,,0.00,WeatherDisplay:10.37,2013-03-17 03:18:00,
2013-03-16 22:23:00,45.9,39.4,29.91,NNE,26,3.5,3.5,78,0.00,CLR,,0.00,WeatherDisplay:10.37,2013-03-17 03:23:00,
2013-03-16 22:28:00,45.7,39.6,29.92,NNE,28,4.6,4.6,79,0.00,CLR,,0.00,WeatherDisplay:10.37,2013-03-17 03:28:00,
2013-03-16 22:33:00,45.6,39.5,29.92,NE,34,3.0,3.0,79,0.00,CLR,,0.00,WeatherDisplay:10.37,2013-03-17 03:33:00,
2013-03-16 22:38:00,45.5,39.4,29.91,NNE,33,3.5,3.5,79,0.00,CLR,,0.00,WeatherDisplay:10.37,2013-03-17 03:38:00,
2013-03-16 22:43:00,45.3,39.2,29.91,NNE,33,3.5,3.5,79,0.00,CLR,,0.00,WeatherDisplay:10.37,2013-03-17 03:43:00,
2013-03-16 22:48:00,45.1,39.3,29.91,NE,34,3.5,3.5,80,0.00,CLR,,0.00,WeatherDisplay:10.37,2013-03-17 03:48:00,
2013-03-16 22:53:00,45.0,39.2,29.91,NE,41,3.5,3.5,80,0.00,CLR,,0.00,WeatherDisplay:10.37,2013-03-17 03:53:00,
2013-03-16 22:58:00,44.9,39.1,29.91,NE,40,2.3,2.3,80,0.00,CLR,,0.00,WeatherDisplay:10.37,2013-03-17 03:58:00,
2013-03-16 23:00:00,44.9,39.1,29.92,NE,40,2.3,2.3,80,0.00,CLR,,0.00,WeatherDisplay:10.37,2013-03-17 04:00:00,
2013-03-16 23:05:00,44.7,38.9,29.91,NNE,30,4.0,4.0,80,0.00,CLR,,0.00,WeatherDisplay:10.37,2013-03-17 04:05:00,
2013-03-16 23:10:00,44.5,39.0,29.92,NNE,22,3.5,3.5,81,0.00,CLR,,0.00,WeatherDisplay:10.37,2013-03-17 04:10:00,
2013-03-16 23:15:00,44.4,38.9,29.92,NNE,19,2.3,2.3,81,0.00,CLR,,0.00,WeatherDisplay:10.37,2013-03-17 04:15:00,
2013-03-16 23:20:00,44.3,38.8,29.92,North,5,3.0,3.0,81,0.00,CLR,,0.00,WeatherDisplay:10.37,2013-03-17 04:20:00,
2013-03-16 23:25:00,44.3,38.8,29.91,North,5,2.3,2.3,81,0.00,CLR,,0.00,WeatherDisplay:10.37,2013-03-17 04:25:00,
2013-03-16 23:30:00,44.2,38.7,29.91,NNE,26,3.0,3.0,81,0.00,CLR,,0.00,WeatherDisplay:10.37,2013-03-17 04:30:00,
2013-03-16 23:35:00,44.2,38.7,29.91,NNE,25,3.5,3.5,81,0.00,CLR,,0.00,WeatherDisplay:10.37,2013-03-17 04:35:00,
2013-03-16 23:40:00,44.2,38.7,29.91,North,9,2.3,2.3,81,0.00,CLR,,0.00,WeatherDisplay:10.37,2013-03-17 04:40:00,
2013-03-16 23:45:00,44.1,38.3,29.91,NNE,32,5.8,5.8,80,0.00,CLR,,0.00,WeatherDisplay:10.37,2013-03-17 04:45:00,
2013-03-16 23:50:00,43.9,38.1,29.91,NNE,17,4.6,4.6,80,0.00,CLR,,0.00,WeatherDisplay:10.37,2013-03-17 04:50:00,
2013-03-16 23:55:00,43.7,38.3,29.90,NNE,17,3.0,3.0,81,0.00,CLR,,0.00,WeatherDisplay:10.37,2013-03-17 04:55:00,